Time;durP1;ratioP1;P1;durP2;ratioP2;P2;SDS_P1;SDS_P2;PMS_P1;PMS_P2;Temp;Humidity;BMP_temperature;BMP_pressure;BME280_temperature;BME280_humidity;BME280_pressure;Samples;Min_cycle;Max_cycle;Signal;HPM_P1;HPM_P2
2023/01/31 00:00:11;;;;;;;335.77;81.20;;;;;;;2.89;69.23;99064.91;347261;28;1309;-78
2023/01/31 00:00:21;;;;;;;336.85;81.20;;;;;;;2.87;68.82;99069.25;346000;28;1415;-78
2023/01/31 00:00:32;;;;;;;333.88;82.03;;;;;;;2.88;68.92;99068.38;344285;28;1245;-78
2023/01/31 00:00:44;;;;;;;330.53;79.40;;;;;;;2.88;68.85;99069.22;347095;28;1271;-79
2023/01/31 00:00:54;;;;;;;330.80;78.00;;;;;;;2.88;69.13;99069.22;347238;28;1283;-79
2023/01/31 00:01:10;;;;;;;331.15;77.95;;;;;;;2.87;69.33;99070.13;345121;28;1050;-78
2023/01/31 00:01:22;;;;;;;332.06;81.00;;;;;;;2.85;68.70;99063.28;347362;28;1414;-78
2023/01/31 00:01:35;;;;;;;332.02;82.10;;;;;;;2.89;68.59;99065.78;344128;28;1147;-79
2023/01/31 00:01:45;;;;;;;331.02;79.95;;;;;;;2.89;68.27;99070.94;343263;28;1395;-79
2023/01/31 00:01:55;;;;;;;332.23;81.75;;;;;;;2.92;68.11;99068.31;345625;28;1423;-79
2023/01/31 00:02:06;;;;;;;330.00;81.87;;;;;;;2.93;68.29;99072.59;341857;28;1121;-79
2023/01/31 00:02:16;;;;;;;331.00;82.13;;;;;;;2.93;68.08;99066.56;346618;28;1430;-79
2023/01/31 00:02:29;;;;;;;332.73;82.83;;;;;;;2.95;67.87;99070.81;345783;28;1173;-79
2023/01/31 00:02:40;;;;;;;335.13;84.72;;;;;;;2.93;68.38;99067.41;342971;28;1322;-79
2023/01/31 00:02:50;;;;;;;335.98;86.43;;;;;;;2.90;68.20;99064.88;344505;28;1303;-79
2023/01/31 00:03:00;;;;;;;335.50;85.77;;;;;;;2.95;68.40;99076.00;345229;28;1368;-79
2023/01/31 00:03:11;;;;;;;335.15;84.32;;;;;;;2.95;68.59;99070.81;345723;28;1357;-79
2023/01/31 00:03:21;;;;;;;333.43;83.30;;;;;;;2.93;68.54;99067.41;343284;28;1261;-79
2023/01/31 00:03:32;;;;;;;330.67;81.25;;;;;;;2.95;68.37;99076.00;345216;28;1314;-79
2023/01/31 00:03:42;;;;;;;330.07;82.80;;;;;;;2.96;67.89;99077.69;344657;28;1220;-79
2023/01/31 00:04:05;;;;;;;330.35;82.60;;;;;;;2.97;67.96;99073.38;343615;28;872;-78
2023/01/31 00:04:15;;;;;;;330.77;79.40;;;;;;;2.96;68.26;99075.13;341081;28;1082;-79
2023/01/31 00:04:26;;;;;;;333.10;81.43;;;;;;;2.98;68.19;99078.53;341789;28;1357;-79
2023/01/31 00:04:36;;;;;;;335.67;83.30;;;;;;;2.96;68.27;99077.69;339536;29;1331;-78
2023/01/31 00:04:48;;;;;;;335.53;84.07;;;;;;;2.95;68.47;99070.81;341142;28;1126;-79
2023/01/31 00:04:58;;;;;;;336.10;83.20;;;;;;;2.96;68.75;99079.44;341025;28;1435;-79
2023/01/31 00:05:09;;;;;;;335.83;83.00;;;;;;;2.95;68.57;99070.81;343159;28;1188;-79
2023/01/31 00:05:19;;;;;;;337.40;81.37;;;;;;;2.99;68.67;99080.22;343303;28;1316;-80
2023/01/31 00:05:30;;;;;;;334.50;80.25;;;;;;;2.99;68.77;99082.81;338896;29;1331;-77
2023/01/31 00:05:40;;;;;;;333.97;80.37;;;;;;;2.99;68.82;99077.63;337951;29;1362;-77
2023/01/31 00:05:50;;;;;;;332.50;83.40;;;;;;;2.98;68.33;99085.44;339695;29;1242;-79
2023/01/31 00:06:13;;;;;;;336.75;86.75;;;;;;;3.02;68.43;99073.28;341960;28;1532;-78
2023/01/31 00:06:31;;;;;;;333.30;83.10;;;;;;;3.02;68.73;99081.06;340334;28;1409;-77
2023/01/31 00:06:43;;;;;;;334.88;84.45;;;;;;;3.02;68.06;99083.63;340977;28;1159;-78
2023/01/31 00:06:54;;;;;;;338.42;86.20;;;;;;;2.98;68.04;99075.94;338915;29;1409;-78
2023/01/31 00:07:05;;;;;;;337.10;84.90;;;;;;;2.98;68.18;99070.78;333793;29;1235;-82
2023/01/31 00:07:16;;;;;;;338.15;83.57;;;;;;;3.03;68.20;99081.03;341546;28;1398;-79
2023/01/31 00:07:26;;;;;;;334.52;82.68;;;;;;;3.04;68.84;99074.09;338802;28;1970;-79
2023/01/31 00:07:36;;;;;;;338.10;84.40;;;;;;;3.04;68.03;99079.25;337019;29;1209;-79
2023/01/31 00:07:47;;;;;;;334.67;84.15;;;;;;;3.02;68.13;99075.88;336711;29;1310;-80
2023/01/31 00:07:57;;;;;;;334.73;84.87;;;;;;;3.04;68.28;99074.09;333516;29;1273;-80
2023/01/31 00:08:08;;;;;;;333.88;85.93;;;;;;;3.03;67.98;99067.25;334520;29;1230;-79
2023/01/31 00:08:18;;;;;;;334.70;86.17;;;;;;;3.03;68.12;99077.59;332775;29;1362;-79
2023/01/31 00:08:29;;;;;;;332.98;83.85;;;;;;;3.05;67.84;99086.13;335456;29;1506;-79
2023/01/31 00:08:39;;;;;;;331.63;82.53;;;;;;;3.05;67.96;99075.78;332700;29;1643;-79
2023/01/31 00:08:50;;;;;;;329.77;80.97;;;;;;;3.05;67.50;99080.97;332947;29;1236;-77
2023/01/31 00:09:00;;;;;;;336.33;83.57;;;;;;;3.05;67.59;99075.78;331775;29;1813;-80
2023/01/31 00:09:11;;;;;;;338.20;84.63;;;;;;;3.06;68.09;99083.53;334364;29;1512;-79
2023/01/31 00:09:21;;;;;;;340.25;87.55;;;;;;;3.07;68.13;99084.38;329043;30;1332;-79
2023/01/31 00:09:32;;;;;;;338.07;87.80;;;;;;;3.07;68.00;99081.78;332032;29;1735;-79
2023/01/31 00:09:42;;;;;;;339.05;87.78;;;;;;;3.06;67.78;99083.53;333868;29;1582;-79
2023/01/31 00:09:53;;;;;;;339.60;87.17;;;;;;;3.05;67.43;99078.38;331627;29;1108;-79
2023/01/31 00:10:03;;;;;;;337.55;85.28;;;;;;;3.06;68.18;99078.34;328942;30;1242;-79
2023/01/31 00:10:14;;;;;;;337.47;86.10;;;;;;;3.07;67.94;99085.22;330651;29;1255;-79
2023/01/31 00:10:24;;;;;;;334.60;85.27;;;;;;;3.08;67.68;99080.91;328430;29;1709;-81
2023/01/31 00:10:35;;;;;;;334.17;85.57;;;;;;;3.06;67.88;99069.75;325343;30;1251;-77
2023/01/31 00:10:45;;;;;;;334.90;84.43;;;;;;;3.07;67.83;99074.88;322773;30;2051;-80
2023/01/31 00:10:58;;;;;;;337.00;86.72;;;;;;;3.07;68.08;99079.19;321745;30;2375;-77
2023/01/31 00:11:08;;;;;;;339.10;86.57;;;;;;;3.07;68.21;99080.06;323368;30;2459;-78
2023/01/31 00:11:20;;;;;;;336.95;85.22;;;;;;;3.08;67.93;99086.06;324182;30;1206;-79
2023/01/31 00:11:31;;;;;;;337.65;85.60;;;;;;;3.10;67.75;99089.47;318163;30;2084;-78
2023/01/31 00:11:41;;;;;;;334.05;83.78;;;;;;;3.09;67.85;99087.78;318137;30;2411;-78
2023/01/31 00:11:52;;;;;;;333.63;83.67;;;;;;;3.08;68.17;99084.34;316786;31;1907;-78
2023/01/31 00:12:02;;;;;;;334.52;83.75;;;;;;;3.09;68.21;99082.59;315718;31;1599;-78
2023/01/31 00:12:13;;;;;;;334.73;84.33;;;;;;;3.10;68.40;99084.31;317095;30;1363;-78
2023/01/31 00:12:23;;;;;;;337.23;86.50;;;;;;;3.11;67.91;99080.84;320161;30;1850;-77
2023/01/31 00:12:34;;;;;;;337.00;87.57;;;;;;;3.10;68.25;99084.31;314820;31;1183;-77
2023/01/31 00:12:44;;;;;;;336.90;88.07;;;;;;;3.10;68.21;99081.72;313631;31;2379;-77
2023/01/31 00:12:55;;;;;;;334.20;85.70;;;;;;;3.12;67.85;99085.13;313608;31;2950;-77
2023/01/31 00:13:05;;;;;;;333.55;85.18;;;;;;;3.11;67.95;99088.59;311672;31;1094;-77
2023/01/31 00:13:16;;;;;;;336.77;87.57;;;;;;;3.09;68.24;99080.88;309794;31;3045;-77
2023/01/31 00:13:26;;;;;;;339.88;89.43;;;;;;;3.08;68.41;99080.91;307706;31;3313;-77
2023/01/31 00:13:37;;;;;;;343.53;90.30;;;;;;;3.08;68.30;99078.31;307129;32;1120;-77
2023/01/31 00:13:47;;;;;;;341.75;88.72;;;;;;;3.10;68.38;99081.72;305140;32;3275;-78
2023/01/31 00:13:58;;;;;;;341.07;87.83;;;;;;;3.09;68.41;99083.47;301683;32;2912;-78
2023/01/31 00:14:12;;;;;;;337.85;86.65;;;;;;;3.07;68.40;99080.06;297589;32;2023;-78
2023/01/31 00:14:23;;;;;;;334.77;82.68;;;;;;;3.09;68.32;99086.03;301027;32;900;-78
2023/01/31 00:14:34;;;;;;;337.64;83.90;;;;;;;3.10;68.55;99090.34;300835;32;1438;-78
2023/01/31 00:14:44;;;;;;;342.50;85.70;;;;;;;3.06;68.64;99080.94;299007;32;3261;-78
2023/01/31 00:14:55;;;;;;;341.10;86.87;;;;;;;3.10;68.37;99086.91;297014;32;3938;-78
2023/01/31 00:15:05;;;;;;;339.40;87.68;;;;;;;3.10;68.55;99085.16;294858;33;1254;-78
2023/01/31 00:15:17;;;;;;;337.67;87.72;;;;;;;3.12;68.60;99092.88;295551;33;4295;-78
2023/01/31 00:15:27;;;;;;;339.15;87.15;;;;;;;3.12;69.29;99087.72;295473;33;5063;-78
2023/01/31 00:15:37;;;;;;;338.08;86.95;;;;;;;3.12;69.09;99083.41;292559;33;1242;-77
2023/01/31 00:15:48;;;;;;;338.83;88.10;;;;;;;3.14;69.22;99091.13;292079;33;6082;-77
2023/01/31 00:15:58;;;;;;;340.90;90.90;;;;;;;3.13;68.82;99092.00;288349;33;4929;-77
2023/01/31 00:16:09;;;;;;;340.83;92.27;;;;;;;3.14;68.66;99080.78;286369;33;3808;-78
2023/01/31 00:16:20;;;;;;;339.63;88.53;;;;;;;3.12;68.81;99082.56;287194;34;1043;-78
2023/01/31 00:16:31;;;;;;;337.50;85.25;;;;;;;3.13;68.71;99084.25;286055;34;2988;-77
2023/01/31 00:16:41;;;;;;;339.63;86.70;;;;;;;3.14;68.93;99091.13;286451;34;3515;-78
2023/01/31 00:16:52;;;;;;;340.80;87.43;;;;;;;3.12;68.89;99080.81;288089;34;1220;-78
2023/01/31 00:17:02;;;;;;;343.00;87.93;;;;;;;3.13;68.67;99089.44;289286;33;4658;-78
2023/01/31 00:17:13;;;;;;;342.00;89.22;;;;;;;3.13;68.93;99090.28;288027;33;6009;-78
2023/01/31 00:17:23;;;;;;;342.37;91.83;;;;;;;3.13;68.76;99085.09;287815;34;6779;-77
2023/01/31 00:17:34;;;;;;;341.15;92.32;;;;;;;3.08;68.97;99071.41;285874;34;1304;-78
2023/01/31 00:17:44;;;;;;;340.67;91.50;;;;;;;3.12;68.98;99082.56;284209;34;7665;-78
2023/01/31 00:17:54;;;;;;;338.98;88.88;;;;;;;3.13;69.06;99089.44;284379;34;7991;-78
2023/01/31 00:18:05;;;;;;;339.00;89.87;;;;;;;3.12;69.02;99088.56;285284;34;1320;-79
2023/01/31 00:18:15;;;;;;;338.05;87.85;;;;;;;3.10;69.48;99076.56;287133;34;6444;-79
2023/01/31 00:18:26;;;;;;;338.83;89.17;;;;;;;3.13;69.17;99086.84;284138;34;5902;-79
2023/01/31 00:18:37;;;;;;;339.73;89.05;;;;;;;3.14;68.92;99091.13;283488;34;1095;-79
2023/01/31 00:18:47;;;;;;;340.83;87.50;;;;;;;3.13;68.94;99084.25;282766;34;4152;-79
2023/01/31 00:18:58;;;;;;;342.17;86.37;;;;;;;3.12;68.92;99083.41;283399;34;4677;-78
2023/01/31 00:19:08;;;;;;;344.95;88.40;;;;;;;3.09;69.36;99072.25;280369;34;5650;-78
2023/01/31 00:19:19;;;;;;;342.57;90.17;;;;;;;3.11;68.98;99076.53;277077;35;1168;-78
2023/01/31 00:19:29;;;;;;;340.50;91.80;;;;;;;3.12;68.93;99079.97;278884;34;8710;-78
2023/01/31 00:19:39;;;;;;;338.73;90.80;;;;;;;3.10;68.84;99074.81;279114;34;9384;-78
2023/01/31 00:19:50;;;;;;;339.13;91.10;;;;;;;3.12;68.82;99077.38;282524;35;1357;-78
2023/01/31 00:20:00;;;;;;;338.43;88.77;;;;;;;3.11;68.89;99073.09;280302;34;11322;-78
2023/01/31 00:21:45;;;;;;;326.42;82.45;;;;;;;3.13;68.43;99086.84;2455777;27;20723;-80
2023/01/31 00:21:56;;;;;;;338.43;86.40;;;;;;;3.12;68.51;99073.06;346211;28;1231;-79
2023/01/31 00:22:07;;;;;;;339.08;85.85;;;;;;;3.12;68.33;99077.38;343182;28;1050;-79
2023/01/31 00:22:17;;;;;;;338.13;83.67;;;;;;;3.11;68.07;99070.50;340787;29;928;-79
2023/01/31 00:22:28;;;;;;;334.25;82.38;;;;;;;3.12;68.06;99079.97;341723;28;1211;-78
2023/01/31 00:22:38;;;;;;;336.33;84.57;;;;;;;3.11;68.15;99079.13;343030;28;1205;-78
2023/01/31 00:22:48;;;;;;;338.60;86.77;;;;;;;3.12;67.94;99074.78;340625;29;1289;-79
2023/01/31 00:22:59;;;;;;;339.17;86.57;;;;;;;3.14;68.35;99075.63;340358;29;1335;-79
2023/01/31 00:23:09;;;;;;;338.60;86.00;;;;;;;3.13;68.29;99073.91;343014;28;1224;-79
2023/01/31 00:23:19;;;;;;;334.40;84.40;;;;;;;3.14;68.78;99070.44;341901;28;1305;-78
2023/01/31 00:23:30;;;;;;;335.03;85.30;;;;;;;3.14;68.30;99070.44;341706;28;1169;-78
2023/01/31 00:23:41;;;;;;;334.67;84.80;;;;;;;3.16;68.96;99073.84;340609;28;1198;-78
2023/01/31 00:23:52;;;;;;;336.95;84.03;;;;;;;3.17;68.89;99079.00;340602;29;944;-78
2023/01/31 00:24:04;;;;;;;340.05;84.22;;;;;;;3.16;68.22;99072.13;341769;28;1201;-78
2023/01/31 00:24:17;;;;;;;341.70;84.03;;;;;;;3.17;68.64;99076.41;342085;28;1423;-79
2023/01/31 00:24:27;;;;;;;337.75;84.82;;;;;;;3.16;68.59;99074.72;343476;28;1365;-78
2023/01/31 00:24:38;;;;;;;334.63;86.05;;;;;;;3.15;68.40;99070.41;344573;28;1224;-78
2023/01/31 00:24:48;;;;;;;334.83;87.60;;;;;;;3.16;68.65;99074.72;341807;28;1312;-78
2023/01/31 00:24:58;;;;;;;335.37;86.93;;;;;;;3.15;68.46;99074.75;341336;28;1222;-78
2023/01/31 00:25:09;;;;;;;338.88;87.45;;;;;;;3.12;69.19;99077.38;339670;29;1226;-78
2023/01/31 00:25:20;;;;;;;340.37;88.07;;;;;;;3.15;69.05;99080.75;339092;29;1195;-78
2023/01/31 00:25:30;;;;;;;337.67;87.10;;;;;;;3.16;69.02;99076.44;339037;29;1330;-79
2023/01/31 00:25:41;;;;;;;334.90;85.77;;;;;;;3.16;68.95;99079.03;337659;29;1944;-79
2023/01/31 00:25:52;;;;;;;333.48;85.05;;;;;;;3.15;69.12;99069.56;337771;29;1120;-79
2023/01/31 00:26:16;;;;;;;332.85;84.57;;;;;;;3.16;68.94;99076.44;338896;29;1263;-79
2023/01/31 00:26:29;;;;;;;329.55;78.97;;;;;;;3.14;69.22;99075.63;333742;29;1524;-79
2023/01/31 00:26:39;;;;;;;334.33;83.53;;;;;;;3.11;68.65;99075.69;335257;29;1475;-79
2023/01/31 00:26:55;;;;;;;336.73;84.77;;;;;;;3.16;69.31;99084.19;333921;29;1329;-79
2023/01/31 00:27:07;;;;;;;338.45;84.85;;;;;;;3.10;68.86;99068.81;334100;29;1086;-79
2023/01/31 00:27:18;;;;;;;337.67;83.10;;;;;;;3.09;68.83;99069.69;334093;29;1491;-79
2023/01/31 00:27:28;;;;;;;337.05;81.88;;;;;;;3.09;69.08;99061.94;332525;29;1090;-79
2023/01/31 00:27:39;;;;;;;340.07;84.47;;;;;;;3.12;69.43;99073.06;335038;29;1204;-78
2023/01/31 00:27:49;;;;;;;340.70;86.60;;;;;;;3.14;69.17;99078.19;335763;29;1228;-78
2023/01/31 00:28:03;;;;;;;341.00;88.80;;;;;;;3.12;68.99;99067.91;335791;29;1300;-80
2023/01/31 00:28:13;;;;;;;336.98;86.30;;;;;;;3.13;68.99;99068.75;335054;29;1528;-79
2023/01/31 00:28:23;;;;;;;338.27;85.90;;;;;;;3.13;69.04;99079.94;334958;29;1277;-79
2023/01/31 00:28:34;;;;;;;337.07;84.27;;;;;;;3.14;69.02;99070.44;335626;29;984;-79
2023/01/31 00:28:45;;;;;;;336.08;83.22;;;;;;;3.12;68.96;99073.06;333619;29;1109;-79
2023/01/31 00:28:56;;;;;;;334.40;81.97;;;;;;;3.15;69.34;99073.00;331551;29;1291;-79
2023/01/31 00:29:06;;;;;;;338.77;85.15;;;;;;;3.16;69.31;99086.78;337758;29;1314;-79
2023/01/31 00:29:17;;;;;;;342.88;87.55;;;;;;;3.16;69.69;99076.44;335231;29;1213;-79
2023/01/31 00:29:29;;;;;;;349.30;90.63;;;;;;;3.13;69.62;99073.91;333056;29;1210;-79
2023/01/31 00:29:39;;;;;;;348.85;91.18;;;;;;;3.16;69.34;99076.44;336290;29;1504;-79
2023/01/31 00:29:50;;;;;;;353.10;90.75;;;;;;;3.17;69.08;99075.56;336350;29;1681;-80
2023/01/31 00:30:00;;;;;;;350.70;89.13;;;;;;;3.16;69.51;99077.28;334087;29;1394;-80
2023/01/31 00:30:12;;;;;;;352.07;92.20;;;;;;;3.17;69.23;99078.16;331831;29;1388;-79
2023/01/31 00:30:22;;;;;;;351.30;91.20;;;;;;;3.16;69.54;99079.03;333615;29;1490;-79
2023/01/31 00:30:33;;;;;;;348.20;91.63;;;;;;;3.16;69.46;99079.03;333999;29;1224;-80
2023/01/31 00:30:44;;;;;;;342.48;87.25;;;;;;;3.17;69.21;99075.56;329097;29;1349;-80
2023/01/31 00:30:54;;;;;;;341.23;85.13;;;;;;;3.16;69.29;99076.44;330055;29;1295;-80
2023/01/31 00:31:05;;;;;;;348.43;86.53;;;;;;;3.15;68.89;99078.16;330400;29;1375;-80
2023/01/31 00:31:16;;;;;;;352.88;86.47;;;;;;;3.17;69.20;99075.56;327647;30;1491;-80
2023/01/31 00:31:27;;;;;;;351.23;88.00;;;;;;;3.17;68.92;99078.16;329568;29;1279;-80
2023/01/31 00:31:37;;;;;;;346.88;87.43;;;;;;;3.18;69.03;99077.25;326425;30;1573;-78
2023/01/31 00:31:48;;;;;;;344.17;86.85;;;;;;;3.18;69.22;99077.25;324101;30;1232;-80
2023/01/31 00:31:58;;;;;;;345.90;87.20;;;;;;;3.17;69.17;99072.97;326583;30;2086;-80
2023/01/31 00:32:08;;;;;;;350.33;88.22;;;;;;;3.18;69.12;99079.84;325933;30;2084;-80
2023/01/31 00:32:19;;;;;;;348.50;89.93;;;;;;;3.18;69.20;99078.13;324237;30;1278;-80
2023/01/31 00:32:29;;;;;;;347.75;90.22;;;;;;;3.18;69.30;99079.84;318141;30;2263;-79
2023/01/31 00:32:40;;;;;;;345.73;87.03;;;;;;;3.17;69.17;99075.56;317679;30;2185;-79
2023/01/31 00:32:50;;;;;;;348.05;87.57;;;;;;;3.17;68.88;99078.16;320726;30;1570;-79
2023/01/31 00:33:01;;;;;;;344.87;86.23;;;;;;;3.17;68.82;99072.97;318574;30;1504;-79
2023/01/31 00:33:15;;;;;;;340.85;84.00;;;;;;;3.18;68.80;99077.25;322632;30;1088;-79
2023/01/31 00:33:25;;;;;;;337.88;83.47;;;;;;;3.17;68.89;99073.81;319205;30;1353;-79
2023/01/31 00:33:37;;;;;;;335.63;83.80;;;;;;;3.18;69.08;99072.09;324001;30;1846;-79
2023/01/31 00:33:47;;;;;;;339.75;86.50;;;;;;;3.18;68.76;99074.69;321991;30;1241;-79
2023/01/31 00:33:58;;;;;;;339.40;86.68;;;;;;;3.18;69.03;99077.25;322476;30;2196;-79
2023/01/31 00:34:09;;;;;;;338.90;87.60;;;;;;;3.16;68.68;99076.44;320444;30;2818;-79
2023/01/31 00:34:19;;;;;;;335.83;85.85;;;;;;;3.17;68.40;99072.97;317154;31;1210;-79
2023/01/31 00:34:30;;;;;;;336.90;86.82;;;;;;;3.18;68.76;99082.44;316292;30;2083;-79
2023/01/31 00:34:40;;;;;;;336.83;83.85;;;;;;;3.18;68.58;99077.25;314187;31;2309;-79
2023/01/31 00:34:54;;;;;;;337.93;85.10;;;;;;;3.18;68.79;99072.09;315350;30;2488;-81
2023/01/31 00:35:07;;;;;;;337.27;85.30;;;;;;;3.17;68.71;99070.38;319473;30;1297;-80
2023/01/31 00:35:18;;;;;;;339.30;83.43;;;;;;;3.17;68.66;99075.56;316022;31;1412;-80
2023/01/31 00:35:28;;;;;;;337.38;80.97;;;;;;;3.16;68.18;99077.28;314648;31;1543;-80
2023/01/31 00:35:39;;;;;;;337.27;81.70;;;;;;;3.16;68.40;99079.88;312632;31;2170;-79
2023/01/31 00:35:51;;;;;;;334.20;82.00;;;;;;;3.17;68.08;99075.56;312524;31;2260;-80
2023/01/31 00:36:05;;;;;;;334.48;82.80;;;;;;;3.17;68.28;99065.22;305393;32;1359;-80
2023/01/31 00:36:18;;;;;;;335.45;83.82;;;;;;;3.14;68.36;99065.28;307088;32;1551;-79
2023/01/31 00:36:30;;;;;;;337.65;85.50;;;;;;;3.17;68.19;99070.38;305047;32;3157;-79
2023/01/31 00:36:40;;;;;;;336.05;84.85;;;;;;;3.19;68.52;99068.63;301444;32;3507;-79
2023/01/31 00:36:51;;;;;;;334.63;83.78;;;;;;;3.19;68.17;99079.81;300943;32;2848;-77
2023/01/31 00:37:01;;;;;;;337.37;84.60;;;;;;;3.20;68.54;99075.50;303892;32;1214;-77
2023/01/31 00:37:11;;;;;;;337.92;85.00;;;;;;;3.22;68.12;99076.31;303190;32;2915;-78
2023/01/31 00:37:25;;;;;;;338.93;87.60;;;;;;;3.21;68.33;99075.47;305108;32;2666;-79
2023/01/31 00:37:38;;;;;;;337.00;86.40;;;;;;;3.23;68.16;99070.28;299911;32;2423;-78
2023/01/31 00:37:49;;;;;;;335.88;84.72;;;;;;;3.24;67.73;99077.16;295886;33;1453;-78
2023/01/31 00:37:59;;;;;;;335.38;85.43;;;;;;;3.22;68.13;99069.41;295988;33;3237;-79
2023/01/31 00:38:10;;;;;;;341.47;91.27;;;;;;;3.24;67.79;99071.97;291762;33;4015;-79
2023/01/31 00:38:20;;;;;;;344.05;92.70;;;;;;;3.23;67.85;99071.13;287454;33;3662;-78
2023/01/31 00:38:30;;;;;;;345.43;94.13;;;;;;;3.26;67.75;99072.78;286141;34;1109;-78
2023/01/31 00:38:41;;;;;;;342.05;92.30;;;;;;;3.25;67.68;99073.69;283917;34;3890;-78
2023/01/31 00:38:53;;;;;;;347.95;89.25;;;;;;;3.25;67.69;99071.09;282264;34;4530;-80
2023/01/31 00:39:04;;;;;;;346.33;88.57;;;;;;;3.24;67.84;99072.81;282366;35;1424;-80
2023/01/31 00:39:15;;;;;;;347.33;89.90;;;;;;;3.26;67.41;99067.63;278880;34;3761;-80
2023/01/31 00:39:25;;;;;;;343.98;91.70;;;;;;;3.25;67.78;99071.09;278988;35;3807;-79
2023/01/31 00:39:36;;;;;;;342.00;89.07;;;;;;;3.24;67.47;99067.66;275536;35;3437;-79
2023/01/31 00:39:46;;;;;;;337.73;87.38;;;;;;;3.25;68.13;99064.19;275317;35;1351;-79
2023/01/31 00:39:57;;;;;;;341.60;91.77;;;;;;;3.27;68.01;99071.91;273971;35;3824;-79
2023/01/31 00:40:10;;;;;;;343.73;93.60;;;;;;;3.25;67.43;99068.50;272417;35;4525;-79
2023/01/31 00:40:20;;;;;;;346.90;96.43;;;;;;;3.23;67.74;99063.38;272551;36;5200;-79
2023/01/31 00:40:31;;;;;;;346.80;95.55;;;;;;;3.24;67.89;99071.97;269399;36;1476;-80
2023/01/31 00:40:41;;;;;;;350.53;96.57;;;;;;;3.23;67.78;99059.94;270919;35;5114;-80
2023/01/31 00:40:52;;;;;;;348.98;94.25;;;;;;;3.24;67.97;99059.03;269028;36;5211;-80
2023/01/31 00:41:03;;;;;;;347.52;93.88;;;;;;;3.23;67.95;99062.50;265260;37;1289;-80
2023/01/31 00:41:13;;;;;;;345.73;91.40;;;;;;;3.23;67.26;99059.94;267297;36;5501;-79
2023/01/31 00:41:25;;;;;;;343.02;88.40;;;;;;;3.24;67.90;99066.81;265178;36;6348;-79
2023/01/31 00:41:36;;;;;;;339.88;86.38;;;;;;;3.24;67.85;99066.81;262520;37;5552;-77
2023/01/31 00:41:47;;;;;;;339.60;85.97;;;;;;;3.24;67.85;99066.81;262547;37;1340;-77
2023/01/31 00:41:57;;;;;;;344.70;87.97;;;;;;;3.24;67.48;99059.03;259564;37;4429;-77
2023/01/31 00:43:59;;;;;;;331.95;81.32;;;;;;;3.15;67.60;99036.81;2463329;27;20283;-93
2023/01/31 00:44:15;;;;;;;347.63;87.68;;;;;;;3.15;67.30;99041.13;345186;28;1326;-92
2023/01/31 00:44:28;;;;;;;352.60;96.45;;;;;;;3.18;67.63;99047.09;345351;28;1477;-93
2023/01/31 00:44:39;;;;;;;350.35;97.40;;;;;;;3.22;67.86;99059.06;343920;28;1547;-92
2023/01/31 00:44:58;;;;;;;344.08;93.25;;;;;;;3.16;67.58;99042.84;342721;28;955;-93
2023/01/31 00:45:17;;;;;;;344.23;92.30;;;;;;;3.19;67.88;99053.13;344575;28;1402;-92
2023/01/31 00:45:32;;;;;;;346.05;91.93;;;;;;;3.26;67.73;99059.88;343909;28;996;-92
2023/01/31 00:46:02;;;;;;;349.50;93.70;;;;;;;3.25;67.50;99050.41;343955;28;1432;-92
2023/01/31 00:46:32;;;;;;;335.52;85.68;;;;;;;3.17;68.30;99044.53;344132;28;1105;-92
2023/01/31 00:46:43;;;;;;;339.75;90.00;;;;;;;3.14;67.88;99040.28;341281;29;1052;-93
2023/01/31 00:47:07;;;;;;;344.80;94.03;;;;;;;3.21;67.85;99052.19;344163;28;952;-93
2023/01/31 00:47:42;;;;;;;342.08;89.30;;;;;;;3.22;68.20;99056.50;345401;28;1340;-92
2023/01/31 00:48:34;;;;;;;332.92;85.07;;;;;;;3.17;68.01;99050.56;337091;29;1137;-92
2023/01/31 00:48:48;;;;;;;342.00;88.93;;;;;;;3.13;68.25;99032.56;336813;29;1056;-92
2023/01/31 00:49:00;;;;;;;348.33;93.95;;;;;;;3.11;68.40;99039.50;337073;29;1509;-93
2023/01/31 00:49:16;;;;;;;349.25;95.22;;;;;;;3.18;68.61;99051.41;339533;29;1057;-93
2023/01/31 00:49:29;;;;;;;350.23;95.18;;;;;;;3.13;68.93;99030.81;338200;29;1310;-92
2023/01/31 00:49:40;;;;;;;351.05;95.75;;;;;;;3.07;68.61;99037.84;338758;29;1168;-93
2023/01/31 00:49:55;;;;;;;347.20;93.07;;;;;;;3.20;68.77;99052.22;336092;29;1282;-92
2023/01/31 00:50:15;;;;;;;348.63;89.53;;;;;;;3.21;68.98;99062.53;336547;29;1065;-92
2023/01/31 00:50:28;;;;;;;347.95;89.78;;;;;;;3.16;69.14;99051.44;333450;29;1292;-93
2023/01/31 00:50:39;;;;;;;349.80;93.78;;;;;;;3.19;69.33;99058.28;336856;29;1476;-92
2023/01/31 00:51:12;;;;;;;347.48;93.45;;;;;;;3.10;68.70;99036.06;333012;29;1578;-92
2023/01/31 00:51:25;;;;;;;342.90;90.00;;;;;;;3.12;68.97;99047.22;331076;29;1473;-93
2023/01/31 00:51:39;;;;;;;342.30;91.07;;;;;;;3.16;68.65;99054.03;329943;30;1305;-92
2023/01/31 00:51:52;;;;;;;345.73;92.80;;;;;;;3.13;68.56;99042.91;331063;29;1307;-93
2023/01/31 00:52:06;;;;;;;348.90;93.70;;;;;;;3.19;68.60;99055.69;328747;30;1175;-93
2023/01/31 00:52:26;;;;;;;349.75;93.53;;;;;;;3.19;68.94;99047.94;329079;29;1281;-92
2023/01/31 00:52:40;;;;;;;346.67;92.00;;;;;;;3.13;68.56;99037.72;329412;30;934;-93
2023/01/31 00:52:50;;;;;;;345.77;92.10;;;;;;;3.18;68.70;99052.25;327232;30;1387;-93
2023/01/31 00:53:05;;;;;;;346.05;92.35;;;;;;;3.18;68.69;99051.41;328225;29;1330;-93
2023/01/31 00:53:22;;;;;;;352.67;93.15;;;;;;;3.16;68.83;99042.84;330825;29;1443;-92
2023/01/31 00:53:37;;;;;;;355.67;94.75;;;;;;;3.13;68.92;99045.47;330620;29;1331;-92
2023/01/31 00:53:51;;;;;;;350.83;93.38;;;;;;;3.27;68.77;99061.56;332143;29;1181;-92
2023/01/31 00:54:04;;;;;;;349.58;94.97;;;;;;;3.25;68.42;99056.44;330677;29;1366;-92
2023/01/31 00:54:20;;;;;;;344.63;93.50;;;;;;;3.29;68.94;99059.81;330579;29;1028;-92
2023/01/31 00:54:35;;;;;;;345.23;94.65;;;;;;;3.26;68.60;99058.13;330452;29;1179;-93
2023/01/31 00:54:46;;;;;;;347.08;94.53;;;;;;;3.27;68.63;99056.41;331961;29;1372;-93
2023/01/31 00:55:00;;;;;;;346.32;93.94;;;;;;;3.22;68.59;99053.91;328140;30;1540;-92
2023/01/31 00:55:16;;;;;;;349.92;94.70;;;;;;;3.21;68.82;99048.75;327908;30;1154;-92
2023/01/31 00:55:32;;;;;;;347.45;94.22;;;;;;;3.15;68.79;99035.97;325868;30;1401;-92
2023/01/31 00:55:47;;;;;;;348.02;96.15;;;;;;;3.24;68.72;99051.28;323463;30;1160;-93
2023/01/31 00:56:10;;;;;;;343.35;93.20;;;;;;;3.25;68.79;99047.81;323545;30;1180;-92
2023/01/31 00:56:28;;;;;;;337.58;87.03;;;;;;;3.30;68.80;99072.69;324418;30;1145;-92
2023/01/31 00:56:43;;;;;;;350.65;95.97;;;;;;;3.17;68.41;99034.19;322186;30;1496;-92
2023/01/31 00:56:55;;;;;;;363.40;103.88;;;;;;;3.24;68.63;99051.28;321806;30;1013;-92
2023/01/31 00:57:07;;;;;;;356.23;98.03;;;;;;;3.23;67.97;99047.84;318075;31;862;-92
2023/01/31 00:57:19;;;;;;;345.77;93.38;;;;;;;3.31;68.29;99064.06;320152;30;1238;-92
2023/01/31 00:57:31;;;;;;;346.80;92.45;;;;;;;3.28;67.70;99047.75;323673;30;1355;-92
2023/01/31 00:57:43;;;;;;;350.65;97.00;;;;;;;3.25;67.53;99045.22;324617;30;1025;-92
2023/01/31 00:57:54;;;;;;;352.60;99.03;;;;;;;3.29;67.80;99049.47;326266;30;1326;-93
2023/01/31 00:58:06;;;;;;;352.20;97.28;;;;;;;3.36;67.83;99060.53;323417;30;1260;-92
2023/01/31 00:58:20;;;;;;;356.48;97.63;;;;;;;3.33;67.84;99057.13;320717;30;1282;-92
2023/01/31 00:58:38;;;;;;;361.95;99.00;;;;;;;3.37;67.68;99062.25;318430;30;1329;-92
2023/01/31 00:58:50;;;;;;;364.20;100.53;;;;;;;3.37;67.59;99052.75;317167;31;1458;-93
2023/01/31 00:59:07;;;;;;;364.60;100.40;;;;;;;3.29;67.72;99039.13;315567;31;1339;-92
2023/01/31 00:59:20;;;;;;;361.20;98.70;;;;;;;3.29;67.39;99044.28;319356;30;1376;-92
2023/01/31 00:59:32;;;;;;;361.02;96.65;;;;;;;3.34;67.86;99047.63;317831;31;1513;-93
2023/01/31 00:59:48;;;;;;;356.95;94.05;;;;;;;3.32;67.28;99041.66;317942;31;1400;-93
2023/01/31 01:00:00;;;;;;;357.17;98.00;;;;;;;3.41;67.51;99064.72;315314;31;1816;-92
2023/01/31 01:00:13;;;;;;;354.60;95.50;;;;;;;3.41;67.34;99059.56;315194;31;1279;-92
2023/01/31 01:00:50;;;;;;;347.13;90.85;;;;;;;3.39;67.55;99055.31;315107;31;1229;-92
2023/01/31 01:01:08;;;;;;;349.60;94.75;;;;;;;3.41;67.33;99058.72;308071;31;1971;-92
2023/01/31 01:01:26;;;;;;;357.55;102.38;;;;;;;3.43;67.74;99062.97;306765;31;1505;-92